KLGC/LGC METAR and TAF weather

Enter ICAO airport designator
Station Type Date Time Source
KLGC METAR 2021/04/13 07:55 UTC NOAA

KLGC 130755Z AUTO 00000KT 10SM CLR 10/10 A3000 RMK AO2 T01020097


Station Type Date Time Source
KLGC Decoded METAR 2021/04/13 07:55 UTC NOAA

La Grange, Callaway Airport, GA, United States (KLGC) 33-00-32N 085-04-21W
Apr 13, 2021 - 03:55 AM EDT / 2021.04.13 0755 UTC
Wind: Calm:0
Visibility: 10 mile(s):0
Sky conditions: clear
Temperature: 50.4 F (10.2 C)
Dew Point: 49.5 F (9.7 C)
Relative Humidity: 96%
Pressure (altimeter): 30 in. Hg (1015 hPa)
ob: KLGC 130755Z AUTO 00000KT 10SM CLR 10/10 A3000 RMK AO2 T01020097
cycle: 8

Station Type Date Time Source
KLGC TAF UTC NOAA

Error!

Example: see airport list